sensor_id;sensor_type;location;lat;lon;timestamp;temperature;humidity
44671;DHT22;48397;53.016;-2.260;2023-01-25T00:01:05;5.80;99.90
44671;DHT22;48397;53.016;-2.260;2023-01-25T00:03:33;5.80;99.90
44671;DHT22;48397;53.016;-2.260;2023-01-25T00:10:57;5.80;99.90
44671;DHT22;48397;53.016;-2.260;2023-01-25T00:13:25;5.80;99.90
44671;DHT22;48397;53.016;-2.260;2023-01-25T00:15:53;5.80;99.90
44671;DHT22;48397;53.016;-2.260;2023-01-25T00:18:21;5.80;99.90
44671;DHT22;48397;53.016;-2.260;2023-01-25T00:20:48;5.80;99.90
44671;DHT22;48397;53.016;-2.260;2023-01-25T00:23:16;5.80;99.90
44671;DHT22;48397;53.016;-2.260;2023-01-25T00:25:43;5.80;99.90
44671;DHT22;48397;53.016;-2.260;2023-01-25T00:28:11;5.80;99.90
44671;DHT22;48397;53.016;-2.260;2023-01-25T00:35:44;5.80;99.90
44671;DHT22;48397;53.016;-2.260;2023-01-25T00:38:33;5.80;99.90
44671;DHT22;48397;53.016;-2.260;2023-01-25T00:43:29;5.80;99.90
44671;DHT22;48397;53.016;-2.260;2023-01-25T00:46:00;5.80;99.90
44671;DHT22;48397;53.016;-2.260;2023-01-25T00:51:02;5.80;99.90
44671;DHT22;48397;53.016;-2.260;2023-01-25T00:53:30;5.80;99.90
44671;DHT22;48397;53.016;-2.260;2023-01-25T00:55:58;5.80;99.90
44671;DHT22;48397;53.016;-2.260;2023-01-25T00:58:26;5.80;99.90
44671;DHT22;48397;53.016;-2.260;2023-01-25T01:00:55;5.80;99.90
44671;DHT22;48397;53.016;-2.260;2023-01-25T01:03:23;5.80;99.90
44671;DHT22;48397;53.016;-2.260;2023-01-25T01:06:08;5.80;99.90
44671;DHT22;48397;53.016;-2.260;2023-01-25T01:08:41;5.80;99.90
44671;DHT22;48397;53.016;-2.260;2023-01-25T01:11:10;5.80;99.90
44671;DHT22;48397;53.016;-2.260;2023-01-25T01:13:39;5.80;99.90
44671;DHT22;48397;53.016;-2.260;2023-01-25T01:16:09;5.80;99.90
44671;DHT22;48397;53.016;-2.260;2023-01-25T01:18:41;5.80;99.90
44671;DHT22;48397;53.016;-2.260;2023-01-25T01:21:11;5.80;99.90
44671;DHT22;48397;53.016;-2.260;2023-01-25T01:23:39;5.80;99.90
44671;DHT22;48397;53.016;-2.260;2023-01-25T01:26:10;5.80;99.90
44671;DHT22;48397;53.016;-2.260;2023-01-25T01:31:16;5.80;99.90
44671;DHT22;48397;53.016;-2.260;2023-01-25T01:33:53;5.80;99.90
44671;DHT22;48397;53.016;-2.260;2023-01-25T01:36:23;5.80;99.90
44671;DHT22;48397;53.016;-2.260;2023-01-25T01:38:51;5.80;99.90
44671;DHT22;48397;53.016;-2.260;2023-01-25T01:41:20;5.80;99.90
44671;DHT22;48397;53.016;-2.260;2023-01-25T01:43:49;5.80;99.90
44671;DHT22;48397;53.016;-2.260;2023-01-25T01:46:29;5.80;99.90
44671;DHT22;48397;53.016;-2.260;2023-01-25T01:49:01;5.90;99.90
44671;DHT22;48397;53.016;-2.260;2023-01-25T01:54:34;5.80;99.90
44671;DHT22;48397;53.016;-2.260;2023-01-25T01:57:15;5.80;99.90
44671;DHT22;48397;53.016;-2.260;2023-01-25T01:59:51;5.80;99.90
44671;DHT22;48397;53.016;-2.260;2023-01-25T02:02:22;5.80;99.90
44671;DHT22;48397;53.016;-2.260;2023-01-25T02:04:53;5.80;99.90
44671;DHT22;48397;53.016;-2.260;2023-01-25T02:07:32;5.80;99.90
44671;DHT22;48397;53.016;-2.260;2023-01-25T02:10:07;5.80;99.90
44671;DHT22;48397;53.016;-2.260;2023-01-25T02:12:38;5.80;99.90
44671;DHT22;48397;53.016;-2.260;2023-01-25T02:15:08;5.80;99.90
44671;DHT22;48397;53.016;-2.260;2023-01-25T02:17:38;5.80;99.90
44671;DHT22;48397;53.016;-2.260;2023-01-25T02:25:41;5.80;99.90
44671;DHT22;48397;53.016;-2.260;2023-01-25T02:30:58;5.80;99.90
44671;DHT22;48397;53.016;-2.260;2023-01-25T02:33:27;5.80;99.90
44671;DHT22;48397;53.016;-2.260;2023-01-25T02:36:23;5.80;99.90
44671;DHT22;48397;53.016;-2.260;2023-01-25T02:39:00;5.70;99.90
44671;DHT22;48397;53.016;-2.260;2023-01-25T02:41:37;5.80;99.90
44671;DHT22;48397;53.016;-2.260;2023-01-25T02:44:09;5.70;99.90
44671;DHT22;48397;53.016;-2.260;2023-01-25T02:46:38;5.80;99.90
44671;DHT22;48397;53.016;-2.260;2023-01-25T02:49:08;5.80;99.90
44671;DHT22;48397;53.016;-2.260;2023-01-25T02:51:38;5.80;99.90
44671;DHT22;48397;53.016;-2.260;2023-01-25T02:54:08;5.70;99.90
44671;DHT22;48397;53.016;-2.260;2023-01-25T02:56:37;5.70;99.90
44671;DHT22;48397;53.016;-2.260;2023-01-25T02:59:10;5.70;99.90
44671;DHT22;48397;53.016;-2.260;2023-01-25T03:01:42;5.70;99.90
44671;DHT22;48397;53.016;-2.260;2023-01-25T03:04:11;5.70;99.90
44671;DHT22;48397;53.016;-2.260;2023-01-25T03:06:39;5.80;99.90
44671;DHT22;48397;53.016;-2.260;2023-01-25T03:09:09;5.80;99.90
44671;DHT22;48397;53.016;-2.260;2023-01-25T03:11:40;5.80;99.90
44671;DHT22;48397;53.016;-2.260;2023-01-25T03:14:09;5.90;99.90
44671;DHT22;48397;53.016;-2.260;2023-01-25T03:16:37;5.90;99.90
44671;DHT22;48397;53.016;-2.260;2023-01-25T03:21:35;6.10;99.90
44671;DHT22;48397;53.016;-2.260;2023-01-25T03:24:03;6.20;99.90
44671;DHT22;48397;53.016;-2.260;2023-01-25T03:26:37;6.20;99.90
44671;DHT22;48397;53.016;-2.260;2023-01-25T03:29:40;6.10;99.90
44671;DHT22;48397;53.016;-2.260;2023-01-25T03:32:13;6.20;99.90
44671;DHT22;48397;53.016;-2.260;2023-01-25T03:34:41;6.30;99.90
44671;DHT22;48397;53.016;-2.260;2023-01-25T03:37:10;6.30;99.90
44671;DHT22;48397;53.016;-2.260;2023-01-25T03:39:39;6.30;99.90
44671;DHT22;48397;53.016;-2.260;2023-01-25T03:42:07;6.40;99.90
44671;DHT22;48397;53.016;-2.260;2023-01-25T03:44:35;6.30;99.90
44671;DHT22;48397;53.016;-2.260;2023-01-25T03:49:23;6.40;99.90
44671;DHT22;48397;53.016;-2.260;2023-01-25T03:51:53;6.30;99.90
44671;DHT22;48397;53.016;-2.260;2023-01-25T03:54:27;6.30;99.90
44671;DHT22;48397;53.016;-2.260;2023-01-25T03:56:55;6.30;99.90
44671;DHT22;48397;53.016;-2.260;2023-01-25T03:59:27;6.30;99.90
44671;DHT22;48397;53.016;-2.260;2023-01-25T04:01:55;6.30;99.90
44671;DHT22;48397;53.016;-2.260;2023-01-25T04:04:23;6.30;99.90
44671;DHT22;48397;53.016;-2.260;2023-01-25T04:06:51;6.40;99.90
44671;DHT22;48397;53.016;-2.260;2023-01-25T04:09:19;6.30;99.90
44671;DHT22;48397;53.016;-2.260;2023-01-25T04:11:51;6.40;99.90
44671;DHT22;48397;53.016;-2.260;2023-01-25T04:14:19;6.40;99.90
44671;DHT22;48397;53.016;-2.260;2023-01-25T04:17:06;6.40;99.90
44671;DHT22;48397;53.016;-2.260;2023-01-25T04:19:58;6.40;99.90
44671;DHT22;48397;53.016;-2.260;2023-01-25T04:22:32;6.40;99.90
44671;DHT22;48397;53.016;-2.260;2023-01-25T04:25:00;6.50;99.90
44671;DHT22;48397;53.016;-2.260;2023-01-25T04:27:28;6.50;99.90
44671;DHT22;48397;53.016;-2.260;2023-01-25T04:30:07;6.50;99.90
44671;DHT22;48397;53.016;-2.260;2023-01-25T04:32:37;6.50;99.90
44671;DHT22;48397;53.016;-2.260;2023-01-25T04:35:17;6.50;99.90
44671;DHT22;48397;53.016;-2.260;2023-01-25T04:37:54;6.50;99.90
44671;DHT22;48397;53.016;-2.260;2023-01-25T04:40:27;6.50;99.90
44671;DHT22;48397;53.016;-2.260;2023-01-25T04:42:55;6.60;99.90
44671;DHT22;48397;53.016;-2.260;2023-01-25T04:45:23;6.60;99.90
44671;DHT22;48397;53.016;-2.260;2023-01-25T04:47:58;6.50;99.90
44671;DHT22;48397;53.016;-2.260;2023-01-25T04:50:27;6.50;99.90
44671;DHT22;48397;53.016;-2.260;2023-01-25T04:52:55;6.50;99.90
44671;DHT22;48397;53.016;-2.260;2023-01-25T04:55:24;6.40;99.90
44671;DHT22;48397;53.016;-2.260;2023-01-25T04:57:54;6.30;99.90
44671;DHT22;48397;53.016;-2.260;2023-01-25T05:00:22;6.40;99.90
44671;DHT22;48397;53.016;-2.260;2023-01-25T05:02:50;6.40;99.90
44671;DHT22;48397;53.016;-2.260;2023-01-25T05:05:18;6.40;99.90
44671;DHT22;48397;53.016;-2.260;2023-01-25T05:07:47;6.40;99.90
44671;DHT22;48397;53.016;-2.260;2023-01-25T05:10:15;6.40;99.90
44671;DHT22;48397;53.016;-2.260;2023-01-25T05:13:02;6.40;99.90
44671;DHT22;48397;53.016;-2.260;2023-01-25T05:15:30;6.40;99.90
44671;DHT22;48397;53.016;-2.260;2023-01-25T05:17:58;6.40;99.90
44671;DHT22;48397;53.016;-2.260;2023-01-25T05:20:26;6.40;99.90
44671;DHT22;48397;53.016;-2.260;2023-01-25T05:22:54;6.40;99.90
44671;DHT22;48397;53.016;-2.260;2023-01-25T05:25:21;6.40;99.90
44671;DHT22;48397;53.016;-2.260;2023-01-25T05:28:08;6.40;99.90
44671;DHT22;48397;53.016;-2.260;2023-01-25T05:31:02;6.30;99.90
44671;DHT22;48397;53.016;-2.260;2023-01-25T05:33:33;6.40;99.90
44671;DHT22;48397;53.016;-2.260;2023-01-25T05:36:01;6.30;99.90
44671;DHT22;48397;53.016;-2.260;2023-01-25T05:38:33;6.30;99.90
44671;DHT22;48397;53.016;-2.260;2023-01-25T05:41:00;6.30;99.90
44671;DHT22;48397;53.016;-2.260;2023-01-25T05:43:28;6.30;99.90
44671;DHT22;48397;53.016;-2.260;2023-01-25T05:45:56;6.30;99.90
44671;DHT22;48397;53.016;-2.260;2023-01-25T05:48:25;6.30;99.90
44671;DHT22;48397;53.016;-2.260;2023-01-25T05:50:56;6.20;99.90
44671;DHT22;48397;53.016;-2.260;2023-01-25T05:53:26;6.20;99.90
44671;DHT22;48397;53.016;-2.260;2023-01-25T05:55:54;6.20;99.90
44671;DHT22;48397;53.016;-2.260;2023-01-25T05:58:22;6.20;99.90
44671;DHT22;48397;53.016;-2.260;2023-01-25T06:00:49;6.20;99.90
44671;DHT22;48397;53.016;-2.260;2023-01-25T06:03:29;6.20;99.90
44671;DHT22;48397;53.016;-2.260;2023-01-25T06:06:00;6.10;99.90
44671;DHT22;48397;53.016;-2.260;2023-01-25T06:08:30;6.20;99.90
44671;DHT22;48397;53.016;-2.260;2023-01-25T06:10:58;6.20;99.90
44671;DHT22;48397;53.016;-2.260;2023-01-25T06:13:27;6.10;99.90
44671;DHT22;48397;53.016;-2.260;2023-01-25T06:15:56;6.10;99.90
44671;DHT22;48397;53.016;-2.260;2023-01-25T06:18:42;6.10;99.90
44671;DHT22;48397;53.016;-2.260;2023-01-25T06:21:29;6.10;99.90
44671;DHT22;48397;53.016;-2.260;2023-01-25T06:23:57;6.10;99.90
44671;DHT22;48397;53.016;-2.260;2023-01-25T06:26:25;6.10;99.90
44671;DHT22;48397;53.016;-2.260;2023-01-25T06:28:53;6.10;99.90
44671;DHT22;48397;53.016;-2.260;2023-01-25T06:31:20;6.10;99.90
44671;DHT22;48397;53.016;-2.260;2023-01-25T06:33:50;6.00;99.90
44671;DHT22;48397;53.016;-2.260;2023-01-25T06:36:20;6.10;99.90
44671;DHT22;48397;53.016;-2.260;2023-01-25T06:38:50;6.00;99.90
44671;DHT22;48397;53.016;-2.260;2023-01-25T06:41:18;6.00;99.90
44671;DHT22;48397;53.016;-2.260;2023-01-25T06:43:49;6.00;99.90
44671;DHT22;48397;53.016;-2.260;2023-01-25T06:46:17;6.00;99.90
44671;DHT22;48397;53.016;-2.260;2023-01-25T06:48:45;6.00;99.90
44671;DHT22;48397;53.016;-2.260;2023-01-25T06:51:13;6.00;99.90
44671;DHT22;48397;53.016;-2.260;2023-01-25T06:53:43;6.00;99.90
44671;DHT22;48397;53.016;-2.260;2023-01-25T06:56:13;6.00;99.90
44671;DHT22;48397;53.016;-2.260;2023-01-25T06:58:41;6.10;99.90
44671;DHT22;48397;53.016;-2.260;2023-01-25T07:01:15;6.10;99.90
44671;DHT22;48397;53.016;-2.260;2023-01-25T07:03:47;6.10;99.90
44671;DHT22;48397;53.016;-2.260;2023-01-25T07:06:15;6.20;99.90
44671;DHT22;48397;53.016;-2.260;2023-01-25T07:08:43;6.20;99.90
44671;DHT22;48397;53.016;-2.260;2023-01-25T07:11:11;6.30;99.90
44671;DHT22;48397;53.016;-2.260;2023-01-25T07:13:41;6.30;99.90
44671;DHT22;48397;53.016;-2.260;2023-01-25T07:16:18;6.40;99.90
44671;DHT22;48397;53.016;-2.260;2023-01-25T07:18:46;6.50;99.90
44671;DHT22;48397;53.016;-2.260;2023-01-25T07:21:19;6.50;99.90
44671;DHT22;48397;53.016;-2.260;2023-01-25T07:23:51;6.50;99.90
44671;DHT22;48397;53.016;-2.260;2023-01-25T07:26:22;6.50;99.90
44671;DHT22;48397;53.016;-2.260;2023-01-25T07:28:51;6.50;99.90
44671;DHT22;48397;53.016;-2.260;2023-01-25T07:31:20;6.50;99.90
44671;DHT22;48397;53.016;-2.260;2023-01-25T07:33:53;6.50;99.90
44671;DHT22;48397;53.016;-2.260;2023-01-25T07:36:21;6.50;99.90
44671;DHT22;48397;53.016;-2.260;2023-01-25T07:38:52;6.50;99.90
44671;DHT22;48397;53.016;-2.260;2023-01-25T07:41:22;6.50;99.90
44671;DHT22;48397;53.016;-2.260;2023-01-25T07:43:51;6.40;99.90
44671;DHT22;48397;53.016;-2.260;2023-01-25T07:46:29;6.40;99.90
44671;DHT22;48397;53.016;-2.260;2023-01-25T07:48:57;6.50;99.90
44671;DHT22;48397;53.016;-2.260;2023-01-25T07:51:25;6.50;99.90
44671;DHT22;48397;53.016;-2.260;2023-01-25T07:53:59;6.50;99.90
44671;DHT22;48397;53.016;-2.260;2023-01-25T07:56:30;6.50;99.90
44671;DHT22;48397;53.016;-2.260;2023-01-25T07:58:59;6.50;99.90
44671;DHT22;48397;53.016;-2.260;2023-01-25T08:01:31;6.50;99.90
44671;DHT22;48397;53.016;-2.260;2023-01-25T08:04:02;6.50;99.90
44671;DHT22;48397;53.016;-2.260;2023-01-25T08:06:32;6.50;99.90
44671;DHT22;48397;53.016;-2.260;2023-01-25T08:09:16;6.50;99.90
44671;DHT22;48397;53.016;-2.260;2023-01-25T08:11:47;6.50;99.90
44671;DHT22;48397;53.016;-2.260;2023-01-25T08:14:15;6.50;99.90
44671;DHT22;48397;53.016;-2.260;2023-01-25T08:16:44;6.50;99.90
44671;DHT22;48397;53.016;-2.260;2023-01-25T08:19:11;6.60;99.90
44671;DHT22;48397;53.016;-2.260;2023-01-25T08:21:39;6.60;99.90
44671;DHT22;48397;53.016;-2.260;2023-01-25T08:24:07;6.60;99.90
44671;DHT22;48397;53.016;-2.260;2023-01-25T08:26:36;6.60;99.90
44671;DHT22;48397;53.016;-2.260;2023-01-25T08:29:06;6.60;99.90
44671;DHT22;48397;53.016;-2.260;2023-01-25T08:31:34;6.60;99.90
44671;DHT22;48397;53.016;-2.260;2023-01-25T08:34:03;6.70;99.90
44671;DHT22;48397;53.016;-2.260;2023-01-25T08:36:30;6.60;99.90
44671;DHT22;48397;53.016;-2.260;2023-01-25T08:39:00;6.70;99.90
44671;DHT22;48397;53.016;-2.260;2023-01-25T08:41:30;6.80;99.90
44671;DHT22;48397;53.016;-2.260;2023-01-25T08:46:28;6.80;99.90
44671;DHT22;48397;53.016;-2.260;2023-01-25T08:49:00;6.80;99.90
44671;DHT22;48397;53.016;-2.260;2023-01-25T08:51:29;6.90;99.90
44671;DHT22;48397;53.016;-2.260;2023-01-25T08:54:03;6.90;99.90
44671;DHT22;48397;53.016;-2.260;2023-01-25T08:56:31;7.00;99.90
44671;DHT22;48397;53.016;-2.260;2023-01-25T09:01:27;7.00;99.90
44671;DHT22;48397;53.016;-2.260;2023-01-25T09:03:54;7.20;99.90
44671;DHT22;48397;53.016;-2.260;2023-01-25T09:06:22;7.20;99.90
44671;DHT22;48397;53.016;-2.260;2023-01-25T09:08:50;7.20;99.90
44671;DHT22;48397;53.016;-2.260;2023-01-25T09:11:19;7.30;99.90
44671;DHT22;48397;53.016;-2.260;2023-01-25T09:16:23;7.40;99.90
44671;DHT22;48397;53.016;-2.260;2023-01-25T09:18:59;7.40;99.90
44671;DHT22;48397;53.016;-2.260;2023-01-25T09:21:28;7.50;99.90
44671;DHT22;48397;53.016;-2.260;2023-01-25T09:23:56;7.50;99.90
44671;DHT22;48397;53.016;-2.260;2023-01-25T09:26:37;7.70;99.90
44671;DHT22;48397;53.016;-2.260;2023-01-25T09:29:06;7.80;99.90
44671;DHT22;48397;53.016;-2.260;2023-01-25T09:31:36;7.80;99.90
44671;DHT22;48397;53.016;-2.260;2023-01-25T09:34:28;8.00;99.90
44671;DHT22;48397;53.016;-2.260;2023-01-25T09:36:56;8.10;99.90
44671;DHT22;48397;53.016;-2.260;2023-01-25T09:39:23;8.20;99.90
44671;DHT22;48397;53.016;-2.260;2023-01-25T09:42:05;8.20;99.90
44671;DHT22;48397;53.016;-2.260;2023-01-25T09:55:23;8.50;99.90
44671;DHT22;48397;53.016;-2.260;2023-01-25T09:57:53;8.60;99.90
44671;DHT22;48397;53.016;-2.260;2023-01-25T10:00:36;8.60;99.90
44671;DHT22;48397;53.016;-2.260;2023-01-25T10:05:45;8.70;99.90
44671;DHT22;48397;53.016;-2.260;2023-01-25T10:08:37;8.80;99.90
44671;DHT22;48397;53.016;-2.260;2023-01-25T10:11:25;8.90;99.90
44671;DHT22;48397;53.016;-2.260;2023-01-25T10:13:54;8.90;99.90
44671;DHT22;48397;53.016;-2.260;2023-01-25T10:19:13;8.90;99.90
44671;DHT22;48397;53.016;-2.260;2023-01-25T10:21:47;8.80;99.90
44671;DHT22;48397;53.016;-2.260;2023-01-25T10:27:01;9.00;99.90
44671;DHT22;48397;53.016;-2.260;2023-01-25T10:29:35;9.00;99.90
44671;DHT22;48397;53.016;-2.260;2023-01-25T10:32:22;9.00;99.90
44671;DHT22;48397;53.016;-2.260;2023-01-25T10:34:54;9.10;99.90
44671;DHT22;48397;53.016;-2.260;2023-01-25T10:37:27;9.10;99.90
44671;DHT22;48397;53.016;-2.260;2023-01-25T10:40:18;9.00;99.90
44671;DHT22;48397;53.016;-2.260;2023-01-25T10:42:59;8.90;99.90
44671;DHT22;48397;53.016;-2.260;2023-01-25T10:45:28;9.10;99.90
44671;DHT22;48397;53.016;-2.260;2023-01-25T10:48:06;9.10;99.90
44671;DHT22;48397;53.016;-2.260;2023-01-25T11:00:57;9.10;99.90
44671;DHT22;48397;53.016;-2.260;2023-01-25T11:03:37;9.10;99.90
44671;DHT22;48397;53.016;-2.260;2023-01-25T11:06:07;9.10;99.90
44671;DHT22;48397;53.016;-2.260;2023-01-25T11:08:36;9.00;99.90
44671;DHT22;48397;53.016;-2.260;2023-01-25T11:11:31;9.10;99.90
44671;DHT22;48397;53.016;-2.260;2023-01-25T11:14:02;9.00;99.90
44671;DHT22;48397;53.016;-2.260;2023-01-25T11:16:45;9.00;99.90
44671;DHT22;48397;53.016;-2.260;2023-01-25T11:19:37;8.90;99.90
44671;DHT22;48397;53.016;-2.260;2023-01-25T11:22:25;8.90;99.90
44671;DHT22;48397;53.016;-2.260;2023-01-25T11:24:55;8.90;99.90
44671;DHT22;48397;53.016;-2.260;2023-01-25T11:27:26;8.80;99.90
44671;DHT22;48397;53.016;-2.260;2023-01-25T11:30:09;8.80;99.90
44671;DHT22;48397;53.016;-2.260;2023-01-25T11:32:38;8.80;99.90
44671;DHT22;48397;53.016;-2.260;2023-01-25T11:35:15;8.70;99.90
44671;DHT22;48397;53.016;-2.260;2023-01-25T11:40:16;8.70;99.90
44671;DHT22;48397;53.016;-2.260;2023-01-25T11:51:05;8.80;99.90
44671;DHT22;48397;53.016;-2.260;2023-01-25T12:29:23;9.90;99.90
44671;DHT22;48397;53.016;-2.260;2023-01-25T12:34:29;10.00;99.90
44671;DHT22;48397;53.016;-2.260;2023-01-25T12:36:59;10.20;99.90
44671;DHT22;48397;53.016;-2.260;2023-01-25T12:39:36;10.20;99.90
44671;DHT22;48397;53.016;-2.260;2023-01-25T12:42:20;10.30;99.90
44671;DHT22;48397;53.016;-2.260;2023-01-25T12:47:36;10.40;99.90
44671;DHT22;48397;53.016;-2.260;2023-01-25T12:50:19;10.50;99.90
44671;DHT22;48397;53.016;-2.260;2023-01-25T12:53:20;10.40;99.90
44671;DHT22;48397;53.016;-2.260;2023-01-25T12:55:46;10.40;99.90
44671;DHT22;48397;53.016;-2.260;2023-01-25T13:01:24;10.30;99.90
44671;DHT22;48397;53.016;-2.260;2023-01-25T13:04:29;10.30;99.90
44671;DHT22;48397;53.016;-2.260;2023-01-25T13:07:23;10.30;99.90
44671;DHT22;48397;53.016;-2.260;2023-01-25T13:12:55;10.30;99.90
44671;DHT22;48397;53.016;-2.260;2023-01-25T13:15:41;10.30;99.90
44671;DHT22;48397;53.016;-2.260;2023-01-25T13:21:00;10.30;99.90
44671;DHT22;48397;53.016;-2.260;2023-01-25T13:23:32;10.30;99.90
44671;DHT22;48397;53.016;-2.260;2023-01-25T13:28:56;10.20;99.90
44671;DHT22;48397;53.016;-2.260;2023-01-25T13:31:47;10.20;99.90
44671;DHT22;48397;53.016;-2.260;2023-01-25T13:37:26;9.90;99.90
44671;DHT22;48397;53.016;-2.260;2023-01-25T13:40:01;9.80;99.90
44671;DHT22;48397;53.016;-2.260;2023-01-25T13:42:34;9.80;99.90
44671;DHT22;48397;53.016;-2.260;2023-01-25T13:45:13;9.70;99.90
44671;DHT22;48397;53.016;-2.260;2023-01-25T13:47:42;9.60;99.90
44671;DHT22;48397;53.016;-2.260;2023-01-25T13:50:28;9.60;99.90
44671;DHT22;48397;53.016;-2.260;2023-01-25T13:53:41;9.50;99.90
44671;DHT22;48397;53.016;-2.260;2023-01-25T13:55:52;9.50;99.90
44671;DHT22;48397;53.016;-2.260;2023-01-25T14:00:56;9.30;99.90
44671;DHT22;48397;53.016;-2.260;2023-01-25T14:03:30;9.30;99.90
44671;DHT22;48397;53.016;-2.260;2023-01-25T14:06:00;9.30;99.90
44671;DHT22;48397;53.016;-2.260;2023-01-25T14:08:32;9.40;99.90
44671;DHT22;48397;53.016;-2.260;2023-01-25T14:11:00;9.40;99.90
44671;DHT22;48397;53.016;-2.260;2023-01-25T14:13:28;9.30;99.90
44671;DHT22;48397;53.016;-2.260;2023-01-25T14:15:59;9.30;99.90
44671;DHT22;48397;53.016;-2.260;2023-01-25T14:18:34;9.30;99.90
44671;DHT22;48397;53.016;-2.260;2023-01-25T14:21:17;9.20;99.90
44671;DHT22;48397;53.016;-2.260;2023-01-25T14:23:45;10.00;99.90
44671;DHT22;48397;53.016;-2.260;2023-01-25T14:28:49;9.30;99.90
44671;DHT22;48397;53.016;-2.260;2023-01-25T14:31:35;9.40;99.90
44671;DHT22;48397;53.016;-2.260;2023-01-25T14:34:03;9.30;99.90
44671;DHT22;48397;53.016;-2.260;2023-01-25T14:36:33;9.30;99.90
44671;DHT22;48397;53.016;-2.260;2023-01-25T14:39:01;9.30;99.90
44671;DHT22;48397;53.016;-2.260;2023-01-25T14:41:41;9.40;99.90
44671;DHT22;48397;53.016;-2.260;2023-01-25T14:44:27;9.40;99.90
44671;DHT22;48397;53.016;-2.260;2023-01-25T14:49:52;9.30;99.90
44671;DHT22;48397;53.016;-2.260;2023-01-25T14:52:23;9.30;99.90
44671;DHT22;48397;53.016;-2.260;2023-01-25T14:54:59;9.30;99.90
44671;DHT22;48397;53.016;-2.260;2023-01-25T14:57:36;9.30;99.90
44671;DHT22;48397;53.016;-2.260;2023-01-25T15:00:22;9.40;99.90
44671;DHT22;48397;53.016;-2.260;2023-01-25T15:02:59;9.30;99.90
44671;DHT22;48397;53.016;-2.260;2023-01-25T15:05:29;9.30;99.90
44671;DHT22;48397;53.016;-2.260;2023-01-25T15:10:36;9.30;99.90
44671;DHT22;48397;53.016;-2.260;2023-01-25T15:16:11;9.20;99.90
44671;DHT22;48397;53.016;-2.260;2023-01-25T15:21:30;9.20;99.90
44671;DHT22;48397;53.016;-2.260;2023-01-25T15:24:04;9.10;99.90
44671;DHT22;48397;53.016;-2.260;2023-01-25T15:26:34;9.10;99.90
44671;DHT22;48397;53.016;-2.260;2023-01-25T15:29:14;9.00;99.90
44671;DHT22;48397;53.016;-2.260;2023-01-25T15:31:43;9.00;99.90
44671;DHT22;48397;53.016;-2.260;2023-01-25T15:34:24;8.90;99.90
44671;DHT22;48397;53.016;-2.260;2023-01-25T15:36:51;8.90;99.90
44671;DHT22;48397;53.016;-2.260;2023-01-25T15:39:20;8.90;99.90
44671;DHT22;48397;53.016;-2.260;2023-01-25T15:44:16;8.90;99.90
44671;DHT22;48397;53.016;-2.260;2023-01-25T15:46:49;8.80;99.90
44671;DHT22;48397;53.016;-2.260;2023-01-25T15:49:24;8.80;99.90
44671;DHT22;48397;53.016;-2.260;2023-01-25T15:51:53;8.70;99.90
44671;DHT22;48397;53.016;-2.260;2023-01-25T15:54:22;8.60;99.90
44671;DHT22;48397;53.016;-2.260;2023-01-25T15:56:54;8.60;99.90
44671;DHT22;48397;53.016;-2.260;2023-01-25T15:59:23;8.60;99.90
44671;DHT22;48397;53.016;-2.260;2023-01-25T16:01:51;8.60;99.90
44671;DHT22;48397;53.016;-2.260;2023-01-25T16:04:19;8.50;99.90
44671;DHT22;48397;53.016;-2.260;2023-01-25T16:06:48;8.50;99.90
44671;DHT22;48397;53.016;-2.260;2023-01-25T16:09:25;8.50;99.90
44671;DHT22;48397;53.016;-2.260;2023-01-25T16:11:57;8.50;99.90
44671;DHT22;48397;53.016;-2.260;2023-01-25T16:14:27;8.50;99.90
44671;DHT22;48397;53.016;-2.260;2023-01-25T16:17:00;8.60;99.90
44671;DHT22;48397;53.016;-2.260;2023-01-25T16:19:30;8.50;99.90
44671;DHT22;48397;53.016;-2.260;2023-01-25T16:21:58;8.40;99.90
44671;DHT22;48397;53.016;-2.260;2023-01-25T16:24:25;8.50;99.90
44671;DHT22;48397;53.016;-2.260;2023-01-25T16:26:55;8.40;99.90
44671;DHT22;48397;53.016;-2.260;2023-01-25T16:29:23;8.40;99.90
44671;DHT22;48397;53.016;-2.260;2023-01-25T16:31:51;8.40;99.90
44671;DHT22;48397;53.016;-2.260;2023-01-25T16:34:20;8.40;99.90
44671;DHT22;48397;53.016;-2.260;2023-01-25T16:36:48;8.40;99.90
44671;DHT22;48397;53.016;-2.260;2023-01-25T16:39:24;8.30;99.90
44671;DHT22;48397;53.016;-2.260;2023-01-25T16:41:54;8.20;99.90
44671;DHT22;48397;53.016;-2.260;2023-01-25T16:46:53;8.10;99.90
44671;DHT22;48397;53.016;-2.260;2023-01-25T16:49:23;8.00;99.90
44671;DHT22;48397;53.016;-2.260;2023-01-25T16:51:58;8.00;99.90
44671;DHT22;48397;53.016;-2.260;2023-01-25T16:54:26;7.90;99.90
44671;DHT22;48397;53.016;-2.260;2023-01-25T16:56:54;7.80;99.90
44671;DHT22;48397;53.016;-2.260;2023-01-25T16:59:22;7.80;99.90
44671;DHT22;48397;53.016;-2.260;2023-01-25T17:01:51;7.60;99.90
44671;DHT22;48397;53.016;-2.260;2023-01-25T17:04:18;7.60;99.90
44671;DHT22;48397;53.016;-2.260;2023-01-25T17:06:48;7.50;99.90
44671;DHT22;48397;53.016;-2.260;2023-01-25T17:09:17;7.40;99.90
44671;DHT22;48397;53.016;-2.260;2023-01-25T17:11:52;7.30;99.90
44671;DHT22;48397;53.016;-2.260;2023-01-25T17:14:21;7.20;99.90
44671;DHT22;48397;53.016;-2.260;2023-01-25T17:16:49;7.20;99.90
44671;DHT22;48397;53.016;-2.260;2023-01-25T17:19:18;7.10;99.90
44671;DHT22;48397;53.016;-2.260;2023-01-25T17:21:46;7.60;99.90
44671;DHT22;48397;53.016;-2.260;2023-01-25T17:24:16;6.90;99.90
44671;DHT22;48397;53.016;-2.260;2023-01-25T17:26:43;8.70;99.90
44671;DHT22;48397;53.016;-2.260;2023-01-25T17:29:11;6.90;99.90
44671;DHT22;48397;53.016;-2.260;2023-01-25T17:31:40;6.70;99.90
44671;DHT22;48397;53.016;-2.260;2023-01-25T17:34:13;6.60;99.90
44671;DHT22;48397;53.016;-2.260;2023-01-25T17:36:43;6.60;99.90
44671;DHT22;48397;53.016;-2.260;2023-01-25T17:39:13;6.60;99.90
44671;DHT22;48397;53.016;-2.260;2023-01-25T17:41:43;6.60;99.90
44671;DHT22;48397;53.016;-2.260;2023-01-25T17:44:11;6.50;99.90
44671;DHT22;48397;53.016;-2.260;2023-01-25T17:46:39;6.50;99.90
44671;DHT22;48397;53.016;-2.260;2023-01-25T17:49:10;6.40;99.90
44671;DHT22;48397;53.016;-2.260;2023-01-25T17:51:37;6.50;99.90
44671;DHT22;48397;53.016;-2.260;2023-01-25T17:54:05;6.50;99.90
44671;DHT22;48397;53.016;-2.260;2023-01-25T17:56:33;6.40;99.90
44671;DHT22;48397;53.016;-2.260;2023-01-25T17:59:02;6.30;99.90
44671;DHT22;48397;53.016;-2.260;2023-01-25T18:01:35;6.40;99.90
44671;DHT22;48397;53.016;-2.260;2023-01-25T18:04:06;6.50;99.90
44671;DHT22;48397;53.016;-2.260;2023-01-25T18:06:34;6.50;99.90
44671;DHT22;48397;53.016;-2.260;2023-01-25T18:09:03;6.60;99.90
44671;DHT22;48397;53.016;-2.260;2023-01-25T18:11:34;6.60;99.90
44671;DHT22;48397;53.016;-2.260;2023-01-25T18:14:04;6.60;99.90
44671;DHT22;48397;53.016;-2.260;2023-01-25T18:16:37;6.50;99.90
44671;DHT22;48397;53.016;-2.260;2023-01-25T18:19:06;6.60;99.90
44671;DHT22;48397;53.016;-2.260;2023-01-25T18:21:35;6.50;99.90
44671;DHT22;48397;53.016;-2.260;2023-01-25T18:24:29;6.50;99.90
44671;DHT22;48397;53.016;-2.260;2023-01-25T18:27:07;6.40;99.90
44671;DHT22;48397;53.016;-2.260;2023-01-25T18:29:43;6.30;99.90
44671;DHT22;48397;53.016;-2.260;2023-01-25T18:32:13;6.30;99.90
44671;DHT22;48397;53.016;-2.260;2023-01-25T18:34:41;6.20;99.90
44671;DHT22;48397;53.016;-2.260;2023-01-25T18:37:09;8.10;99.90
44671;DHT22;48397;53.016;-2.260;2023-01-25T18:39:51;6.10;99.90